sensor_id;sensor_type;location;lat;lon;timestamp;temperature;humidity
17968;DHT22;9109;48.050;11.696;2022-12-20T04:46:38;1.70;99.90
17968;DHT22;9109;48.050;11.696;2022-12-20T04:49:41;1.70;99.90
17968;DHT22;9109;48.050;11.696;2022-12-20T04:52:42;1.70;99.90
17968;DHT22;9109;48.050;11.696;2022-12-20T04:56:02;1.70;99.90
17968;DHT22;9109;48.050;11.696;2022-12-20T04:59:04;1.70;99.90
17968;DHT22;9109;48.050;11.696;2022-12-20T05:02:08;1.70;99.90
17968;DHT22;9109;48.050;11.696;2022-12-20T05:05:10;1.70;99.90
17968;DHT22;9109;48.050;11.696;2022-12-20T05:08:12;1.70;99.90
17968;DHT22;9109;48.050;11.696;2022-12-20T05:11:14;1.70;99.90
17968;DHT22;9109;48.050;11.696;2022-12-20T05:14:16;1.70;99.90
17968;DHT22;9109;48.050;11.696;2022-12-20T05:17:19;1.50;99.90
17968;DHT22;9109;48.050;11.696;2022-12-20T05:20:21;1.60;99.90
17968;DHT22;9109;48.050;11.696;2022-12-20T05:23:23;1.50;99.90
17968;DHT22;9109;48.050;11.696;2022-12-20T05:26:47;1.60;99.90
17968;DHT22;9109;48.050;11.696;2022-12-20T05:29:49;1.60;99.90
17968;DHT22;9109;48.050;11.696;2022-12-20T05:32:54;1.60;99.90
17968;DHT22;9109;48.050;11.696;2022-12-20T05:35:56;1.70;99.90
17968;DHT22;9109;48.050;11.696;2022-12-20T05:38:57;1.60;99.90
17968;DHT22;9109;48.050;11.696;2022-12-20T05:41:59;1.70;99.90
17968;DHT22;9109;48.050;11.696;2022-12-20T05:45:01;1.70;99.90
17968;DHT22;9109;48.050;11.696;2022-12-20T05:48:05;1.60;99.90
17968;DHT22;9109;48.050;11.696;2022-12-20T05:51:07;1.60;99.90
17968;DHT22;9109;48.050;11.696;2022-12-20T05:54:09;1.60;99.90
17968;DHT22;9109;48.050;11.696;2022-12-20T05:57:11;1.60;99.90
17968;DHT22;9109;48.050;11.696;2022-12-20T06:00:26;1.60;99.90
17968;DHT22;9109;48.050;11.696;2022-12-20T06:03:30;1.70;99.90
17968;DHT22;9109;48.050;11.696;2022-12-20T06:06:44;1.70;99.90
17968;DHT22;9109;48.050;11.696;2022-12-20T06:10:09;1.70;99.90
17968;DHT22;9109;48.050;11.696;2022-12-20T06:13:16;1.80;99.90
17968;DHT22;9109;48.050;11.696;2022-12-20T06:16:37;1.70;99.90
17968;DHT22;9109;48.050;11.696;2022-12-20T06:23:28;1.60;99.90
17968;DHT22;9109;48.050;11.696;2022-12-20T06:26:39;1.60;99.90
17968;DHT22;9109;48.050;11.696;2022-12-20T06:29:45;1.70;99.90
17968;DHT22;9109;48.050;11.696;2022-12-20T06:32:51;1.70;99.90
17968;DHT22;9109;48.050;11.696;2022-12-20T06:36:09;1.70;99.90
17968;DHT22;9109;48.050;11.696;2022-12-20T06:39:49;1.80;99.90
17968;DHT22;9109;48.050;11.696;2022-12-20T06:43:09;1.80;99.90
17968;DHT22;9109;48.050;11.696;2022-12-20T06:46:28;1.80;99.90
17968;DHT22;9109;48.050;11.696;2022-12-20T06:49:32;1.80;99.90
17968;DHT22;9109;48.050;11.696;2022-12-20T06:52:46;1.80;99.90
17968;DHT22;9109;48.050;11.696;2022-12-20T06:55:49;1.80;99.90
17968;DHT22;9109;48.050;11.696;2022-12-20T07:02:26;1.80;99.90
17968;DHT22;9109;48.050;11.696;2022-12-20T07:05:53;1.80;99.90
17968;DHT22;9109;48.050;11.696;2022-12-20T07:09:08;1.80;99.90
17968;DHT22;9109;48.050;11.696;2022-12-20T07:12:28;1.80;99.90
17968;DHT22;9109;48.050;11.696;2022-12-20T07:15:35;1.80;99.90
17968;DHT22;9109;48.050;11.696;2022-12-20T07:18:39;1.80;99.90
17968;DHT22;9109;48.050;11.696;2022-12-20T07:21:41;1.70;99.90
17968;DHT22;9109;48.050;11.696;2022-12-20T07:24:45;1.70;99.90
17968;DHT22;9109;48.050;11.696;2022-12-20T07:27:47;1.80;99.90
17968;DHT22;9109;48.050;11.696;2022-12-20T07:30:50;1.80;99.90
17968;DHT22;9109;48.050;11.696;2022-12-20T07:33:52;1.80;99.90
17968;DHT22;9109;48.050;11.696;2022-12-20T07:36:54;1.90;99.90
17968;DHT22;9109;48.050;11.696;2022-12-20T07:39:57;2.10;99.90
17968;DHT22;9109;48.050;11.696;2022-12-20T07:42:59;2.20;99.90
17968;DHT22;9109;48.050;11.696;2022-12-20T07:46:02;2.20;99.90
17968;DHT22;9109;48.050;11.696;2022-12-20T07:49:10;2.10;99.90
17968;DHT22;9109;48.050;11.696;2022-12-20T07:52:13;2.20;99.90
17968;DHT22;9109;48.050;11.696;2022-12-20T07:55:17;2.10;99.90
17968;DHT22;9109;48.050;11.696;2022-12-20T07:58:19;2.20;99.90
17968;DHT22;9109;48.050;11.696;2022-12-20T08:01:21;2.30;99.90
17968;DHT22;9109;48.050;11.696;2022-12-20T08:04:25;2.30;99.90
17968;DHT22;9109;48.050;11.696;2022-12-20T08:07:28;2.50;99.90
17968;DHT22;9109;48.050;11.696;2022-12-20T08:11:00;2.50;99.90
17968;DHT22;9109;48.050;11.696;2022-12-20T08:14:05;2.50;99.90
17968;DHT22;9109;48.050;11.696;2022-12-20T08:17:08;2.40;99.90
17968;DHT22;9109;48.050;11.696;2022-12-20T08:20:11;2.50;99.90
17968;DHT22;9109;48.050;11.696;2022-12-20T08:23:13;2.60;99.90
17968;DHT22;9109;48.050;11.696;2022-12-20T08:26:17;2.60;99.90
17968;DHT22;9109;48.050;11.696;2022-12-20T08:29:19;2.70;99.90
17968;DHT22;9109;48.050;11.696;2022-12-20T08:32:21;2.70;99.90
17968;DHT22;9109;48.050;11.696;2022-12-20T08:35:23;2.80;99.90
17968;DHT22;9109;48.050;11.696;2022-12-20T08:38:26;2.70;99.90
17968;DHT22;9109;48.050;11.696;2022-12-20T08:41:29;2.80;99.90
17968;DHT22;9109;48.050;11.696;2022-12-20T08:44:31;2.90;99.90
17968;DHT22;9109;48.050;11.696;2022-12-20T08:47:33;3.00;99.90
17968;DHT22;9109;48.050;11.696;2022-12-20T08:50:36;3.00;99.90
17968;DHT22;9109;48.050;11.696;2022-12-20T08:53:39;3.10;99.90
17968;DHT22;9109;48.050;11.696;2022-12-20T08:56:42;3.10;99.90
17968;DHT22;9109;48.050;11.696;2022-12-20T08:59:44;3.00;99.90
17968;DHT22;9109;48.050;11.696;2022-12-20T09:02:46;3.00;99.90
17968;DHT22;9109;48.050;11.696;2022-12-20T09:05:48;3.00;99.90
17968;DHT22;9109;48.050;11.696;2022-12-20T09:08:50;3.00;99.90
17968;DHT22;9109;48.050;11.696;2022-12-20T09:11:54;2.90;99.90
17968;DHT22;9109;48.050;11.696;2022-12-20T09:14:56;3.10;99.90
17968;DHT22;9109;48.050;11.696;2022-12-20T09:17:58;3.10;99.90
17968;DHT22;9109;48.050;11.696;2022-12-20T09:21:02;3.10;99.90
17968;DHT22;9109;48.050;11.696;2022-12-20T09:24:04;3.20;99.90
17968;DHT22;9109;48.050;11.696;2022-12-20T09:27:08;3.30;99.90
17968;DHT22;9109;48.050;11.696;2022-12-20T09:30:11;3.30;99.90
17968;DHT22;9109;48.050;11.696;2022-12-20T09:33:13;3.30;99.90
17968;DHT22;9109;48.050;11.696;2022-12-20T09:36:18;3.30;99.90
17968;DHT22;9109;48.050;11.696;2022-12-20T09:39:20;3.20;99.90
17968;DHT22;9109;48.050;11.696;2022-12-20T09:42:25;3.20;99.90
17968;DHT22;9109;48.050;11.696;2022-12-20T09:45:29;3.20;99.90
17968;DHT22;9109;48.050;11.696;2022-12-20T09:48:36;3.20;99.90
17968;DHT22;9109;48.050;11.696;2022-12-20T09:51:48;3.40;99.90
17968;DHT22;9109;48.050;11.696;2022-12-20T09:55:04;3.40;99.90
17968;DHT22;9109;48.050;11.696;2022-12-20T09:58:24;3.40;99.90
17968;DHT22;9109;48.050;11.696;2022-12-20T10:01:30;3.30;99.90
17968;DHT22;9109;48.050;11.696;2022-12-20T10:04:32;3.40;99.90
17968;DHT22;9109;48.050;11.696;2022-12-20T10:07:38;3.50;99.90
17968;DHT22;9109;48.050;11.696;2022-12-20T10:10:52;3.60;99.90
17968;DHT22;9109;48.050;11.696;2022-12-20T10:14:04;3.60;99.90
17968;DHT22;9109;48.050;11.696;2022-12-20T10:17:13;3.70;99.90
17968;DHT22;9109;48.050;11.696;2022-12-20T10:20:30;3.80;99.90
17968;DHT22;9109;48.050;11.696;2022-12-20T10:23:38;3.80;99.90
17968;DHT22;9109;48.050;11.696;2022-12-20T10:26:41;3.80;99.90
17968;DHT22;9109;48.050;11.696;2022-12-20T10:29:46;3.80;99.90
17968;DHT22;9109;48.050;11.696;2022-12-20T10:32:50;3.80;99.90
17968;DHT22;9109;48.050;11.696;2022-12-20T10:35:52;3.90;99.90
17968;DHT22;9109;48.050;11.696;2022-12-20T10:38:55;4.00;99.90
17968;DHT22;9109;48.050;11.696;2022-12-20T10:41:57;4.00;99.90
17968;DHT22;9109;48.050;11.696;2022-12-20T10:45:01;4.20;99.90
17968;DHT22;9109;48.050;11.696;2022-12-20T10:48:24;4.30;99.90
17968;DHT22;9109;48.050;11.696;2022-12-20T10:51:26;4.30;99.90
17968;DHT22;9109;48.050;11.696;2022-12-20T10:54:32;4.40;99.90
17968;DHT22;9109;48.050;11.696;2022-12-20T10:57:34;4.30;99.90
17968;DHT22;9109;48.050;11.696;2022-12-20T11:00:37;4.40;99.90
17968;DHT22;9109;48.050;11.696;2022-12-20T11:03:52;4.40;99.90
17968;DHT22;9109;48.050;11.696;2022-12-20T11:06:54;4.40;99.90
17968;DHT22;9109;48.050;11.696;2022-12-20T11:09:58;4.40;99.90
17968;DHT22;9109;48.050;11.696;2022-12-20T11:13:01;4.40;99.90
17968;DHT22;9109;48.050;11.696;2022-12-20T11:16:08;4.50;99.90
17968;DHT22;9109;48.050;11.696;2022-12-20T11:19:33;4.50;99.90
17968;DHT22;9109;48.050;11.696;2022-12-20T11:22:46;4.40;99.90
17968;DHT22;9109;48.050;11.696;2022-12-20T11:26:07;4.50;99.90
17968;DHT22;9109;48.050;11.696;2022-12-20T11:29:31;4.60;99.90
17968;DHT22;9109;48.050;11.696;2022-12-20T11:32:57;4.70;99.90
17968;DHT22;9109;48.050;11.696;2022-12-20T11:36:02;4.70;99.90
17968;DHT22;9109;48.050;11.696;2022-12-20T11:39:14;4.80;99.90
17968;DHT22;9109;48.050;11.696;2022-12-20T11:42:25;4.80;99.90
17968;DHT22;9109;48.050;11.696;2022-12-20T11:45:36;4.80;99.90
17968;DHT22;9109;48.050;11.696;2022-12-20T11:49:01;4.80;99.90
17968;DHT22;9109;48.050;11.696;2022-12-20T11:52:14;4.70;99.90
17968;DHT22;9109;48.050;11.696;2022-12-20T11:55:23;4.70;99.90
17968;DHT22;9109;48.050;11.696;2022-12-20T11:58:29;4.70;99.90
17968;DHT22;9109;48.050;11.696;2022-12-20T12:01:37;4.60;99.90
17968;DHT22;9109;48.050;11.696;2022-12-20T12:04:47;4.50;99.90
17968;DHT22;9109;48.050;11.696;2022-12-20T12:07:54;4.40;99.90
17968;DHT22;9109;48.050;11.696;2022-12-20T12:11:00;4.40;99.90
17968;DHT22;9109;48.050;11.696;2022-12-20T12:14:05;4.60;99.90
17968;DHT22;9109;48.050;11.696;2022-12-20T12:17:11;4.50;99.90
17968;DHT22;9109;48.050;11.696;2022-12-20T12:20:22;4.50;99.90
17968;DHT22;9109;48.050;11.696;2022-12-20T12:23:28;4.60;99.90
17968;DHT22;9109;48.050;11.696;2022-12-20T12:26:33;4.60;99.90
17968;DHT22;9109;48.050;11.696;2022-12-20T12:29:35;4.50;99.90
17968;DHT22;9109;48.050;11.696;2022-12-20T12:32:40;4.40;99.90
17968;DHT22;9109;48.050;11.696;2022-12-20T12:36:10;4.50;99.90
17968;DHT22;9109;48.050;11.696;2022-12-20T12:43:19;4.70;99.90
17968;DHT22;9109;48.050;11.696;2022-12-20T12:46:26;4.60;99.90
17968;DHT22;9109;48.050;11.696;2022-12-20T12:49:33;4.50;99.90
17968;DHT22;9109;48.050;11.696;2022-12-20T12:52:43;4.50;99.90
17968;DHT22;9109;48.050;11.696;2022-12-20T12:55:48;4.50;99.90
17968;DHT22;9109;48.050;11.696;2022-12-20T12:59:14;4.60;99.90
17968;DHT22;9109;48.050;11.696;2022-12-20T13:02:50;4.60;99.90
17968;DHT22;9109;48.050;11.696;2022-12-20T13:05:52;4.60;99.90
17968;DHT22;9109;48.050;11.696;2022-12-20T13:09:16;4.40;99.90
17968;DHT22;9109;48.050;11.696;2022-12-20T13:12:56;4.50;99.90
17968;DHT22;9109;48.050;11.696;2022-12-20T13:16:08;4.50;99.90
17968;DHT22;9109;48.050;11.696;2022-12-20T13:19:12;4.50;99.90
17968;DHT22;9109;48.050;11.696;2022-12-20T13:22:20;4.50;99.90
17968;DHT22;9109;48.050;11.696;2022-12-20T13:25:29;4.40;99.90
17968;DHT22;9109;48.050;11.696;2022-12-20T13:28:44;4.30;99.90
17968;DHT22;9109;48.050;11.696;2022-12-20T13:31:47;4.40;99.90
17968;DHT22;9109;48.050;11.696;2022-12-20T13:34:54;4.40;99.90
17968;DHT22;9109;48.050;11.696;2022-12-20T13:37:58;4.50;99.90
17968;DHT22;9109;48.050;11.696;2022-12-20T13:41:12;4.50;99.90
17968;DHT22;9109;48.050;11.696;2022-12-20T13:44:40;4.40;99.90
17968;DHT22;9109;48.050;11.696;2022-12-20T13:47:46;4.30;99.90
17968;DHT22;9109;48.050;11.696;2022-12-20T13:50:51;4.40;99.90
17968;DHT22;9109;48.050;11.696;2022-12-20T13:53:55;4.40;99.90
17968;DHT22;9109;48.050;11.696;2022-12-20T13:56:59;4.30;99.90
17968;DHT22;9109;48.050;11.696;2022-12-20T14:00:06;4.30;99.90
17968;DHT22;9109;48.050;11.696;2022-12-20T14:03:20;4.30;99.90
17968;DHT22;9109;48.050;11.696;2022-12-20T14:06:24;4.40;99.90
17968;DHT22;9109;48.050;11.696;2022-12-20T14:09:30;4.30;99.90
17968;DHT22;9109;48.050;11.696;2022-12-20T14:12:33;4.30;99.90
17968;DHT22;9109;48.050;11.696;2022-12-20T14:15:35;4.30;99.90
17968;DHT22;9109;48.050;11.696;2022-12-20T14:18:37;4.30;99.90
17968;DHT22;9109;48.050;11.696;2022-12-20T14:21:42;4.30;99.90
17968;DHT22;9109;48.050;11.696;2022-12-20T14:24:46;4.40;99.90
17968;DHT22;9109;48.050;11.696;2022-12-20T14:27:49;4.40;99.90
17968;DHT22;9109;48.050;11.696;2022-12-20T14:30:51;4.50;99.90
17968;DHT22;9109;48.050;11.696;2022-12-20T14:34:04;4.40;99.90
17968;DHT22;9109;48.050;11.696;2022-12-20T14:37:31;4.40;99.90
17968;DHT22;9109;48.050;11.696;2022-12-20T14:40:39;4.40;99.90
17968;DHT22;9109;48.050;11.696;2022-12-20T14:43:43;4.40;99.90
17968;DHT22;9109;48.050;11.696;2022-12-20T14:46:50;4.30;99.90
17968;DHT22;9109;48.050;11.696;2022-12-20T14:49:56;4.20;99.90
17968;DHT22;9109;48.050;11.696;2022-12-20T14:53:02;4.00;99.90
17968;DHT22;9109;48.050;11.696;2022-12-20T14:56:11;4.00;99.90
17968;DHT22;9109;48.050;11.696;2022-12-20T14:59:21;3.90;99.90
17968;DHT22;9109;48.050;11.696;2022-12-20T15:02:38;3.90;99.90
17968;DHT22;9109;48.050;11.696;2022-12-20T15:05:46;3.90;99.90
17968;DHT22;9109;48.050;11.696;2022-12-20T15:08:48;3.70;99.90
17968;DHT22;9109;48.050;11.696;2022-12-20T15:11:51;3.60;99.90
17968;DHT22;9109;48.050;11.696;2022-12-20T15:14:55;3.60;99.90
17968;DHT22;9109;48.050;11.696;2022-12-20T15:17:57;3.60;99.90
17968;DHT22;9109;48.050;11.696;2022-12-20T15:21:04;3.50;99.90
17968;DHT22;9109;48.050;11.696;2022-12-20T15:24:10;3.50;99.90
17968;DHT22;9109;48.050;11.696;2022-12-20T15:27:13;3.60;99.90
17968;DHT22;9109;48.050;11.696;2022-12-20T15:30:17;3.50;99.90
17968;DHT22;9109;48.050;11.696;2022-12-20T15:33:21;3.50;99.90
17968;DHT22;9109;48.050;11.696;2022-12-20T15:36:25;3.40;99.90
17968;DHT22;9109;48.050;11.696;2022-12-20T15:39:28;3.40;99.90
17968;DHT22;9109;48.050;11.696;2022-12-20T15:42:30;3.40;99.90
17968;DHT22;9109;48.050;11.696;2022-12-20T15:49:00;3.40;99.90
17968;DHT22;9109;48.050;11.696;2022-12-20T15:52:05;3.30;99.90
17968;DHT22;9109;48.050;11.696;2022-12-20T15:55:09;3.30;99.90
17968;DHT22;9109;48.050;11.696;2022-12-20T15:58:11;3.30;99.90
17968;DHT22;9109;48.050;11.696;2022-12-20T16:01:16;3.30;99.90
17968;DHT22;9109;48.050;11.696;2022-12-20T16:04:21;3.40;99.90
17968;DHT22;9109;48.050;11.696;2022-12-20T16:07:23;3.30;99.90
17968;DHT22;9109;48.050;11.696;2022-12-20T16:10:25;3.30;99.90
17968;DHT22;9109;48.050;11.696;2022-12-20T16:13:27;3.20;99.90
17968;DHT22;9109;48.050;11.696;2022-12-20T16:16:31;3.30;99.90
17968;DHT22;9109;48.050;11.696;2022-12-20T16:19:34;3.30;99.90
17968;DHT22;9109;48.050;11.696;2022-12-20T16:22:36;3.30;99.90
17968;DHT22;9109;48.050;11.696;2022-12-20T16:25:38;3.20;99.90
17968;DHT22;9109;48.050;11.696;2022-12-20T16:28:41;3.20;99.90
17968;DHT22;9109;48.050;11.696;2022-12-20T16:31:43;3.20;99.90
17968;DHT22;9109;48.050;11.696;2022-12-20T16:34:48;3.10;99.90
17968;DHT22;9109;48.050;11.696;2022-12-20T16:37:50;3.20;99.90
17968;DHT22;9109;48.050;11.696;2022-12-20T16:40:52;3.10;99.90
17968;DHT22;9109;48.050;11.696;2022-12-20T16:43:54;3.10;99.90
17968;DHT22;9109;48.050;11.696;2022-12-20T16:46:57;3.10;99.90
17968;DHT22;9109;48.050;11.696;2022-12-20T16:50:00;3.00;99.90
17968;DHT22;9109;48.050;11.696;2022-12-20T16:53:02;3.00;99.90
17968;DHT22;9109;48.050;11.696;2022-12-20T16:56:04;2.90;99.90
17968;DHT22;9109;48.050;11.696;2022-12-20T16:59:06;2.90;99.90
17968;DHT22;9109;48.050;11.696;2022-12-20T17:02:20;3.00;99.90
17968;DHT22;9109;48.050;11.696;2022-12-20T17:05:27;3.10;99.90
17968;DHT22;9109;48.050;11.696;2022-12-20T17:08:29;3.10;99.90
17968;DHT22;9109;48.050;11.696;2022-12-20T17:11:31;3.10;99.90
17968;DHT22;9109;48.050;11.696;2022-12-20T17:14:33;3.10;99.90
17968;DHT22;9109;48.050;11.696;2022-12-20T17:17:35;3.10;99.90
17968;DHT22;9109;48.050;11.696;2022-12-20T17:20:38;3.10;99.90
17968;DHT22;9109;48.050;11.696;2022-12-20T17:23:40;3.00;99.90
17968;DHT22;9109;48.050;11.696;2022-12-20T17:26:42;3.00;99.90
17968;DHT22;9109;48.050;11.696;2022-12-20T17:29:44;3.00;99.90
17968;DHT22;9109;48.050;11.696;2022-12-20T17:32:46;3.00;99.90
17968;DHT22;9109;48.050;11.696;2022-12-20T17:35:49;3.10;99.90
17968;DHT22;9109;48.050;11.696;2022-12-20T17:38:51;3.00;99.90
17968;DHT22;9109;48.050;11.696;2022-12-20T17:41:54;2.90;99.90
17968;DHT22;9109;48.050;11.696;2022-12-20T17:44:55;3.00;99.90
17968;DHT22;9109;48.050;11.696;2022-12-20T17:47:58;3.00;99.90
17968;DHT22;9109;48.050;11.696;2022-12-20T17:51:02;3.00;99.90
17968;DHT22;9109;48.050;11.696;2022-12-20T17:54:04;2.90;99.90
17968;DHT22;9109;48.050;11.696;2022-12-20T17:57:11;2.90;99.90
17968;DHT22;9109;48.050;11.696;2022-12-20T18:00:26;2.90;99.90
17968;DHT22;9109;48.050;11.696;2022-12-20T18:03:28;3.00;99.90
17968;DHT22;9109;48.050;11.696;2022-12-20T18:06:36;2.90;99.90
17968;DHT22;9109;48.050;11.696;2022-12-20T18:09:39;2.90;99.90
17968;DHT22;9109;48.050;11.696;2022-12-20T18:12:41;2.90;99.90
17968;DHT22;9109;48.050;11.696;2022-12-20T18:15:42;2.90;99.90
17968;DHT22;9109;48.050;11.696;2022-12-20T18:18:45;3.00;99.90
17968;DHT22;9109;48.050;11.696;2022-12-20T18:21:48;3.10;99.90
17968;DHT22;9109;48.050;11.696;2022-12-20T18:24:50;3.00;99.90
17968;DHT22;9109;48.050;11.696;2022-12-20T18:27:52;3.00;99.90
17968;DHT22;9109;48.050;11.696;2022-12-20T18:30:54;3.00;99.90
17968;DHT22;9109;48.050;11.696;2022-12-20T18:33:56;3.00;99.90
17968;DHT22;9109;48.050;11.696;2022-12-20T18:37:00;3.00;99.90
17968;DHT22;9109;48.050;11.696;2022-12-20T18:40:06;2.90;99.90
17968;DHT22;9109;48.050;11.696;2022-12-20T18:43:08;2.90;99.90
17968;DHT22;9109;48.050;11.696;2022-12-20T18:46:12;2.80;99.90
17968;DHT22;9109;48.050;11.696;2022-12-20T18:49:14;2.70;99.90
17968;DHT22;9109;48.050;11.696;2022-12-20T18:52:17;2.70;99.90
17968;DHT22;9109;48.050;11.696;2022-12-20T18:55:19;2.70;99.90
17968;DHT22;9109;48.050;11.696;2022-12-20T18:58:21;2.70;99.90
17968;DHT22;9109;48.050;11.696;2022-12-20T19:01:25;2.70;99.90
17968;DHT22;9109;48.050;11.696;2022-12-20T19:04:27;2.70;99.90
17968;DHT22;9109;48.050;11.696;2022-12-20T19:07:30;2.70;99.90
17968;DHT22;9109;48.050;11.696;2022-12-20T19:10:32;2.60;99.90
17968;DHT22;9109;48.050;11.696;2022-12-20T19:13:34;2.60;99.90
17968;DHT22;9109;48.050;11.696;2022-12-20T19:16:37;2.60;99.90
17968;DHT22;9109;48.050;11.696;2022-12-20T19:19:39;2.60;99.90
17968;DHT22;9109;48.050;11.696;2022-12-20T19:22:42;2.50;99.90
17968;DHT22;9109;48.050;11.696;2022-12-20T19:25:44;2.60;99.90
17968;DHT22;9109;48.050;11.696;2022-12-20T19:28:47;2.60;99.90
17968;DHT22;9109;48.050;11.696;2022-12-20T19:31:48;2.60;99.90
17968;DHT22;9109;48.050;11.696;2022-12-20T19:34:50;2.60;99.90
17968;DHT22;9109;48.050;11.696;2022-12-20T19:37:54;2.60;99.90
17968;DHT22;9109;48.050;11.696;2022-12-20T19:40:56;2.70;99.90
17968;DHT22;9109;48.050;11.696;2022-12-20T19:43:58;2.70;99.90
17968;DHT22;9109;48.050;11.696;2022-12-20T19:47:00;2.70;99.90
17968;DHT22;9109;48.050;11.696;2022-12-20T19:50:02;2.80;99.90
17968;DHT22;9109;48.050;11.696;2022-12-20T19:53:06;2.80;99.90
17968;DHT22;9109;48.050;11.696;2022-12-20T19:56:10;2.80;99.90
17968;DHT22;9109;48.050;11.696;2022-12-20T19:59:12;2.80;99.90
17968;DHT22;9109;48.050;11.696;2022-12-20T20:02:15;2.80;99.90
17968;DHT22;9109;48.050;11.696;2022-12-20T20:05:17;2.80;99.90
17968;DHT22;9109;48.050;11.696;2022-12-20T20:08:21;2.80;99.90
17968;DHT22;9109;48.050;11.696;2022-12-20T20:11:22;2.90;99.90
17968;DHT22;9109;48.050;11.696;2022-12-20T20:14:24;2.90;99.90
17968;DHT22;9109;48.050;11.696;2022-12-20T20:17:26;3.00;99.90
17968;DHT22;9109;48.050;11.696;2022-12-20T20:20:28;3.00;99.90
17968;DHT22;9109;48.050;11.696;2022-12-20T20:23:32;3.10;99.90
17968;DHT22;9109;48.050;11.696;2022-12-20T20:26:35;3.20;99.90
17968;DHT22;9109;48.050;11.696;2022-12-20T20:29:37;3.20;99.90
17968;DHT22;9109;48.050;11.696;2022-12-20T20:32:39;3.20;99.90
17968;DHT22;9109;48.050;11.696;2022-12-20T20:35:41;3.20;99.90
17968;DHT22;9109;48.050;11.696;2022-12-20T20:38:45;3.20;99.90
17968;DHT22;9109;48.050;11.696;2022-12-20T20:41:47;3.30;99.90
17968;DHT22;9109;48.050;11.696;2022-12-20T20:44:49;3.30;99.90
17968;DHT22;9109;48.050;11.696;2022-12-20T20:47:51;3.30;99.90
17968;DHT22;9109;48.050;11.696;2022-12-20T20:50:54;3.40;99.90
17968;DHT22;9109;48.050;11.696;2022-12-20T20:53:57;3.40;99.90
17968;DHT22;9109;48.050;11.696;2022-12-20T20:57:25;3.30;99.90
17968;DHT22;9109;48.050;11.696;2022-12-20T21:00:30;3.20;99.90
17968;DHT22;9109;48.050;11.696;2022-12-20T21:03:32;3.20;99.90
17968;DHT22;9109;48.050;11.696;2022-12-20T21:06:34;3.20;99.90
17968;DHT22;9109;48.050;11.696;2022-12-20T21:09:41;3.30;99.90
17968;DHT22;9109;48.050;11.696;2022-12-20T21:12:43;3.20;99.90
17968;DHT22;9109;48.050;11.696;2022-12-20T21:15:45;3.20;99.90
17968;DHT22;9109;48.050;11.696;2022-12-20T21:18:49;3.30;99.90
17968;DHT22;9109;48.050;11.696;2022-12-20T21:21:51;3.30;99.90
17968;DHT22;9109;48.050;11.696;2022-12-20T21:24:55;3.30;99.90
17968;DHT22;9109;48.050;11.696;2022-12-20T21:27:58;3.30;99.90
17968;DHT22;9109;48.050;11.696;2022-12-20T21:31:02;3.20;99.90
17968;DHT22;9109;48.050;11.696;2022-12-20T21:34:05;3.10;99.90
17968;DHT22;9109;48.050;11.696;2022-12-20T21:37:07;3.20;99.90
17968;DHT22;9109;48.050;11.696;2022-12-20T21:40:11;3.30;99.90
17968;DHT22;9109;48.050;11.696;2022-12-20T21:43:14;3.20;99.90
17968;DHT22;9109;48.050;11.696;2022-12-20T21:46:16;3.20;99.90
17968;DHT22;9109;48.050;11.696;2022-12-20T21:49:18;3.20;99.90
17968;DHT22;9109;48.050;11.696;2022-12-20T21:52:20;3.20;99.90
17968;DHT22;9109;48.050;11.696;2022-12-20T21:55:23;3.20;99.90
17968;DHT22;9109;48.050;11.696;2022-12-20T21:58:27;3.10;99.90
17968;DHT22;9109;48.050;11.696;2022-12-20T22:01:30;3.00;99.90
17968;DHT22;9109;48.050;11.696;2022-12-20T22:04:32;3.10;99.90
17968;DHT22;9109;48.050;11.696;2022-12-20T22:07:35;3.20;99.90
17968;DHT22;9109;48.050;11.696;2022-12-20T22:10:38;3.30;99.90
17968;DHT22;9109;48.050;11.696;2022-12-20T22:13:40;3.40;99.90
17968;DHT22;9109;48.050;11.696;2022-12-20T22:16:42;3.40;99.90
17968;DHT22;9109;48.050;11.696;2022-12-20T22:19:44;3.40;99.90
17968;DHT22;9109;48.050;11.696;2022-12-20T22:22:46;3.40;99.90
17968;DHT22;9109;48.050;11.696;2022-12-20T22:25:49;3.30;99.90
17968;DHT22;9109;48.050;11.696;2022-12-20T22:28:53;3.40;99.90
17968;DHT22;9109;48.050;11.696;2022-12-20T22:31:55;3.40;99.90
17968;DHT22;9109;48.050;11.696;2022-12-20T22:34:57;3.30;99.90
17968;DHT22;9109;48.050;11.696;2022-12-20T22:37:59;3.30;99.90
17968;DHT22;9109;48.050;11.696;2022-12-20T22:41:11;3.20;99.90
17968;DHT22;9109;48.050;11.696;2022-12-20T22:44:13;3.20;99.90
17968;DHT22;9109;48.050;11.696;2022-12-20T22:47:15;3.10;99.90
17968;DHT22;9109;48.050;11.696;2022-12-20T22:50:17;3.00;99.90
17968;DHT22;9109;48.050;11.696;2022-12-20T22:53:19;3.00;99.90
17968;DHT22;9109;48.050;11.696;2022-12-20T22:56:22;3.00;99.90
17968;DHT22;9109;48.050;11.696;2022-12-20T22:59:24;3.00;99.90
17968;DHT22;9109;48.050;11.696;2022-12-20T23:02:27;3.00;99.90
17968;DHT22;9109;48.050;11.696;2022-12-20T23:05:28;3.10;99.90
17968;DHT22;9109;48.050;11.696;2022-12-20T23:08:33;3.10;99.90
17968;DHT22;9109;48.050;11.696;2022-12-20T23:11:36;3.10;99.90
17968;DHT22;9109;48.050;11.696;2022-12-20T23:14:56;3.20;99.90
17968;DHT22;9109;48.050;11.696;2022-12-20T23:18:21;3.30;99.90
17968;DHT22;9109;48.050;11.696;2022-12-20T23:21:23;3.20;99.90
17968;DHT22;9109;48.050;11.696;2022-12-20T23:24:42;3.20;99.90
17968;DHT22;9109;48.050;11.696;2022-12-20T23:27:48;3.10;99.90
17968;DHT22;9109;48.050;11.696;2022-12-20T23:30:50;3.00;99.90
17968;DHT22;9109;48.050;11.696;2022-12-20T23:33:52;3.00;99.90
17968;DHT22;9109;48.050;11.696;2022-12-20T23:36:54;3.00;99.90
17968;DHT22;9109;48.050;11.696;2022-12-20T23:39:56;3.00;99.90
17968;DHT22;9109;48.050;11.696;2022-12-20T23:42:59;3.00;99.90
17968;DHT22;9109;48.050;11.696;2022-12-20T23:46:03;3.00;99.90
17968;DHT22;9109;48.050;11.696;2022-12-20T23:49:04;3.00;99.90
17968;DHT22;9109;48.050;11.696;2022-12-20T23:52:06;3.10;99.90
17968;DHT22;9109;48.050;11.696;2022-12-20T23:55:08;3.10;99.90
17968;DHT22;9109;48.050;11.696;2022-12-20T23:58:12;3.10;99.90
